Time;durP1;ratioP1;P1;durP2;ratioP2;P2;SDS_P1;SDS_P2;PMS_P1;PMS_P2;Temp;Humidity;BMP_temperature;BMP_pressure;BME280_temperature;BME280_humidity;BME280_pressure;Samples;Min_cycle;Max_cycle;Signal;HPM_P1;HPM_P2
2022/10/08 00:01:49;;;;;;;7.93;2.13;;;;;;;;;;4973515;28;20033;-73
2022/10/08 00:04:15;;;;;;;9.35;1.90;;;;;;;;;;4983884;28;20094;-74
2022/10/08 00:06:41;;;;;;;8.38;1.90;;;;;;;;;;4971913;28;20027;-74
2022/10/08 00:09:07;;;;;;;14.13;2.60;;;;;;;;;;4996201;28;20409;-74
2022/10/08 00:11:35;;;;;;;10.93;2.08;;;;;;;;;;4970258;28;20031;-74
2022/10/08 00:14:01;;;;;;;11.77;2.70;;;;;;;;;;4965539;28;20077;-75
2022/10/08 00:16:29;;;;;;;8.55;2.53;;;;;;;;;;4975669;28;20436;-74
2022/10/08 00:18:57;;;;;;;9.77;2.97;;;;;;;;;;4972516;28;20046;-74
2022/10/08 00:21:25;;;;;;;11.57;2.75;;;;;;;;;;4982028;28;20465;-74
2022/10/08 00:23:52;;;;;;;6.50;2.42;;;;;;;;;;4982289;28;20125;-75
2022/10/08 00:26:19;;;;;;;10.63;2.60;;;;;;;;;;4979109;28;20054;-75
2022/10/08 00:28:46;;;;;;;10.65;2.53;;;;;;;;;;4977596;28;20492;-74
2022/10/08 00:31:14;;;;;;;12.23;3.58;;;;;;;;;;4974955;28;20027;-74
2022/10/08 00:33:40;;;;;;;11.55;2.95;;;;;;;;;;4971644;28;20117;-74
2022/10/08 00:36:08;;;;;;;7.32;2.50;;;;;;;;;;4974003;28;20050;-75
2022/10/08 00:38:34;;;;;;;11.63;3.38;;;;;;;;;;4973186;28;20038;-74
2022/10/08 00:41:01;;;;;;;10.60;2.65;;;;;;;;;;4973952;28;20030;-74
2022/10/08 00:43:41;;;;;;;10.13;2.53;;;;;;;;;;4973741;28;20125;-75
2022/10/08 00:46:17;;;;;;;14.90;3.28;;;;;;;;;;4973166;28;20058;-74
2022/10/08 00:48:43;;;;;;;12.45;2.95;;;;;;;;;;4974879;28;20023;-74
2022/10/08 00:51:10;;;;;;;7.38;2.83;;;;;;;;;;4973514;28;20037;-75
2022/10/08 00:53:36;;;;;;;11.05;2.83;;;;;;;;;;4979563;28;20495;-74
2022/10/08 00:56:02;;;;;;;9.52;2.75;;;;;;;;;;4972685;28;20031;-74
2022/10/08 00:58:30;;;;;;;10.20;2.60;;;;;;;;;;4972518;28;20149;-76
2022/10/08 01:00:57;;;;;;;15.35;3.38;;;;;;;;;;4986769;28;20362;-74
2022/10/08 01:03:23;;;;;;;14.07;3.00;;;;;;;;;;4977403;28;20045;-74
2022/10/08 01:05:54;;;;;;;10.70;2.95;;;;;;;;;;4972466;28;20428;-74
2022/10/08 01:08:35;;;;;;;17.30;3.22;;;;;;;;;;4974868;28;20510;-75
2022/10/08 01:11:07;;;;;;;17.63;3.35;;;;;;;;;;4971255;28;20484;-75
2022/10/08 01:13:40;;;;;;;17.25;3.58;;;;;;;;;;4973810;28;20567;-76
2022/10/08 01:16:06;;;;;;;7.30;3.03;;;;;;;;;;4973256;28;20042;-75
2022/10/08 01:18:38;;;;;;;11.40;3.65;;;;;;;;;;4974586;28;20101;-73
2022/10/08 01:21:04;;;;;;;13.98;3.70;;;;;;;;;;4980510;28;20118;-74
2022/10/08 01:23:43;;;;;;;12.55;3.42;;;;;;;;;;4971352;28;20490;-75
2022/10/08 01:26:26;;;;;;;11.73;3.33;;;;;;;;;;4972074;28;20575;-75
2022/10/08 01:29:00;;;;;;;16.33;4.38;;;;;;;;;;4973157;28;20027;-75
2022/10/08 01:31:26;;;;;;;18.15;4.50;;;;;;;;;;4970822;28;20026;-75
2022/10/08 01:33:54;;;;;;;10.23;3.60;;;;;;;;;;4972066;28;20197;-75
2022/10/08 01:36:21;;;;;;;12.02;4.40;;;;;;;;;;4968590;28;20113;-74
2022/10/08 01:38:51;;;;;;;18.08;4.57;;;;;;;;;;4971447;28;20050;-74
2022/10/08 01:41:18;;;;;;;15.05;5.88;;;;;;;;;;4978776;28;20523;-74
2022/10/08 01:43:46;;;;;;;15.75;6.15;;;;;;;;;;4980344;28;20042;-74
2022/10/08 01:46:18;;;;;;;18.17;6.88;;;;;;;;;;4973293;28;20023;-74
2022/10/08 01:48:45;;;;;;;18.17;7.63;;;;;;;;;;4974055;28;20030;-74
2022/10/08 01:51:14;;;;;;;21.27;8.13;;;;;;;;;;4972228;28;20365;-74
2022/10/08 01:53:42;;;;;;;24.60;8.48;;;;;;;;;;4973767;28;20035;-74
2022/10/08 01:56:10;;;;;;;21.23;8.02;;;;;;;;;;4970704;28;20066;-75
2022/10/08 01:58:40;;;;;;;21.60;8.10;;;;;;;;;;4971440;28;20055;-75
2022/10/08 02:01:10;;;;;;;17.38;8.68;;;;;;;;;;4980003;28;20031;-75
2022/10/08 02:03:36;;;;;;;20.58;9.45;;;;;;;;;;4970057;28;20543;-75
2022/10/08 02:06:04;;;;;;;26.85;10.45;;;;;;;;;;4995279;28;20027;-75
2022/10/08 02:08:30;;;;;;;22.98;10.27;;;;;;;;;;4971506;28;20042;-74
2022/10/08 02:10:56;;;;;;;27.40;10.85;;;;;;;;;;4970663;28;20122;-74
2022/10/08 02:13:23;;;;;;;26.77;12.98;;;;;;;;;;4971245;28;20536;-74
2022/10/08 02:15:49;;;;;;;27.63;12.90;;;;;;;;;;4971042;28;20038;-75
2022/10/08 02:18:17;;;;;;;31.27;12.10;;;;;;;;;;4983845;28;20484;-75
2022/10/08 02:20:57;;;;;;;34.88;12.52;;;;;;;;;;4981480;28;20069;-75
2022/10/08 02:23:29;;;;;;;27.38;11.88;;;;;;;;;;5000263;28;20034;-75
2022/10/08 02:25:56;;;;;;;28.92;13.38;;;;;;;;;;4984546;28;20027;-75
2022/10/08 02:28:45;;;;;;;35.58;15.18;;;;;;;;;;4970132;28;20059;-75
2022/10/08 02:31:20;;;;;;;34.60;15.10;;;;;;;;;;4973352;28;20121;-75
2022/10/08 02:33:58;;;;;;;35.95;14.50;;;;;;;;;;4970308;28;20054;-75
2022/10/08 02:36:27;;;;;;;35.92;14.60;;;;;;;;;;4970559;28;20101;-75
2022/10/08 02:38:56;;;;;;;34.63;14.73;;;;;;;;;;4972487;28;20055;-75
2022/10/08 02:41:25;;;;;;;37.83;14.18;;;;;;;;;;4978035;28;20058;-75
2022/10/08 02:43:54;;;;;;;34.20;16.02;;;;;;;;;;4969968;28;20125;-75
2022/10/08 02:46:21;;;;;;;38.83;14.45;;;;;;;;;;4975057;28;20109;-75
2022/10/08 02:48:50;;;;;;;27.85;13.18;;;;;;;;;;4972746;28;20035;-75
2022/10/08 02:51:17;;;;;;;32.78;13.77;;;;;;;;;;4969028;28;20031;-75
2022/10/08 02:53:44;;;;;;;33.28;12.90;;;;;;;;;;4979181;28;20187;-75
2022/10/08 02:56:23;;;;;;;33.35;13.65;;;;;;;;;;4969675;28;20241;-75
2022/10/08 02:58:49;;;;;;;29.70;12.85;;;;;;;;;;4971022;28;20082;-75
2022/10/08 03:01:15;;;;;;;32.75;12.57;;;;;;;;;;4962412;28;20034;-75
2022/10/08 03:03:45;;;;;;;34.47;13.30;;;;;;;;;;4973150;28;20030;-75
2022/10/08 03:06:11;;;;;;;35.13;13.73;;;;;;;;;;4970914;28;20063;-75
2022/10/08 03:08:43;;;;;;;29.63;12.90;;;;;;;;;;4971421;28;20518;-75
2022/10/08 03:11:10;;;;;;;41.92;13.70;;;;;;;;;;4970890;28;20800;-75
2022/10/08 03:13:40;;;;;;;34.90;13.02;;;;;;;;;;4970649;28;20035;-75
2022/10/08 03:16:08;;;;;;;31.17;12.25;;;;;;;;;;4970314;28;20019;-75
2022/10/08 03:18:35;;;;;;;37.20;12.25;;;;;;;;;;4981720;28;20030;-75
2022/10/08 03:21:02;;;;;;;38.38;12.30;;;;;;;;;;4981391;28;20030;-76
2022/10/08 03:23:28;;;;;;;36.38;11.82;;;;;;;;;;4968671;28;20069;-74
2022/10/08 03:25:54;;;;;;;35.72;12.10;;;;;;;;;;4971656;28;20031;-75
2022/10/08 03:28:20;;;;;;;30.08;11.77;;;;;;;;;;4970607;28;20022;-74
2022/10/08 03:30:46;;;;;;;40.50;12.43;;;;;;;;;;4969228;28;20027;-75
2022/10/08 03:33:12;;;;;;;32.95;11.20;;;;;;;;;;4968010;28;20027;-75
2022/10/08 03:35:44;;;;;;;37.53;12.32;;;;;;;;;;4983478;28;20031;-75
2022/10/08 03:38:10;;;;;;;37.13;11.88;;;;;;;;;;4985027;28;20029;-75
2022/10/08 03:40:36;;;;;;;33.47;11.32;;;;;;;;;;4977535;28;20468;-75
2022/10/08 03:43:02;;;;;;;32.38;11.43;;;;;;;;;;4971075;28;20420;-76
2022/10/08 03:45:29;;;;;;;37.65;11.48;;;;;;;;;;4969868;28;20027;-76
2022/10/08 03:47:55;;;;;;;31.67;10.57;;;;;;;;;;4970399;28;20027;-75
2022/10/08 03:50:21;;;;;;;28.65;10.27;;;;;;;;;;4970401;28;20057;-75
2022/10/08 03:52:47;;;;;;;35.17;10.73;;;;;;;;;;4970630;28;20027;-75
2022/10/08 03:55:13;;;;;;;31.10;10.85;;;;;;;;;;4972118;28;20030;-76
2022/10/08 03:57:39;;;;;;;32.78;10.57;;;;;;;;;;4971511;28;20070;-75
2022/10/08 04:00:05;;;;;;;26.67;10.60;;;;;;;;;;4985870;28;20078;-75
2022/10/08 04:02:32;;;;;;;34.83;10.63;;;;;;;;;;4968444;28;20037;-75
2022/10/08 04:04:58;;;;;;;40.78;10.88;;;;;;;;;;4970170;28;20042;-75
2022/10/08 04:07:24;;;;;;;31.02;11.07;;;;;;;;;;4969413;28;20465;-75
2022/10/08 04:09:50;;;;;;;27.20;10.02;;;;;;;;;;4968436;28;20034;-75
2022/10/08 04:12:15;;;;;;;30.55;10.98;;;;;;;;;;4973592;28;20117;-75
2022/10/08 04:14:41;;;;;;;35.58;11.32;;;;;;;;;;4977531;28;20125;-75
2022/10/08 04:17:08;;;;;;;36.70;11.10;;;;;;;;;;4979547;28;20058;-75
2022/10/08 04:19:34;;;;;;;31.05;9.95;;;;;;;;;;4969546;28;20081;-75
2022/10/08 04:22:00;;;;;;;35.15;9.15;;;;;;;;;;4970286;28;20043;-73
2022/10/08 04:24:26;;;;;;;26.67;9.10;;;;;;;;;;4978083;28;20081;-73
2022/10/08 04:26:52;;;;;;;29.77;7.60;;;;;;;;;;4983896;28;20031;-74
2022/10/08 04:29:18;;;;;;;29.90;6.82;;;;;;;;;;4969468;28;20481;-74
2022/10/08 04:31:44;;;;;;;26.75;7.55;;;;;;;;;;4977283;28;20035;-74
2022/10/08 04:34:10;;;;;;;27.25;8.50;;;;;;;;;;4987133;28;20488;-74
2022/10/08 04:36:36;;;;;;;25.75;8.82;;;;;;;;;;4971895;28;20035;-74
2022/10/08 04:39:02;;;;;;;24.55;7.03;;;;;;;;;;4999533;28;20036;-74
2022/10/08 04:41:28;;;;;;;27.08;7.80;;;;;;;;;;4981796;28;20041;-73
2022/10/08 04:43:58;;;;;;;34.72;8.23;;;;;;;;;;5001622;28;20043;-73
2022/10/08 04:46:24;;;;;;;30.08;8.60;;;;;;;;;;4985530;28;20480;-74
2022/10/08 04:48:52;;;;;;;23.52;8.23;;;;;;;;;;4969719;28;20042;-73
2022/10/08 04:51:19;;;;;;;40.53;8.95;;;;;;;;;;4971037;28;20128;-73
2022/10/08 04:53:45;;;;;;;27.85;8.52;;;;;;;;;;4972736;28;20118;-72
2022/10/08 04:56:18;;;;;;;20.85;6.45;;;;;;;;;;4988717;28;20036;-77
2022/10/08 04:58:45;;;;;;;19.35;6.65;;;;;;;;;;4963358;28;20051;-74
2022/10/08 05:01:13;;;;;;;24.25;6.18;;;;;;;;;;4982474;28;20038;-75
2022/10/08 05:03:40;;;;;;;25.95;6.38;;;;;;;;;;4967179;28;20039;-76
2022/10/08 05:06:07;;;;;;;34.70;5.90;;;;;;;;;;4974051;28;20033;-75
2022/10/08 05:08:33;;;;;;;20.83;5.75;;;;;;;;;;4979680;28;20042;-75
2022/10/08 05:11:00;;;;;;;21.38;6.15;;;;;;;;;;4972399;28;20035;-75
2022/10/08 05:13:26;;;;;;;22.15;5.28;;;;;;;;;;4972789;28;20102;-75
2022/10/08 05:15:52;;;;;;;21.10;5.93;;;;;;;;;;4972359;28;20815;-75
2022/10/08 05:18:18;;;;;;;27.48;5.88;;;;;;;;;;4986935;28;20080;-75
2022/10/08 05:20:44;;;;;;;24.05;6.22;;;;;;;;;;4975978;28;20050;-75
2022/10/08 05:23:10;;;;;;;23.58;5.25;;;;;;;;;;4964616;28;20031;-74
2022/10/08 05:25:36;;;;;;;27.60;7.00;;;;;;;;;;4974713;28;20026;-75
2022/10/08 05:28:03;;;;;;;28.95;5.72;;;;;;;;;;4986102;28;20065;-75
2022/10/08 05:30:29;;;;;;;20.90;5.32;;;;;;;;;;4985215;28;20560;-75
2022/10/08 05:32:55;;;;;;;18.88;4.78;;;;;;;;;;4977262;28;20023;-74
2022/10/08 05:35:21;;;;;;;22.80;5.10;;;;;;;;;;4969927;28;20052;-74
2022/10/08 05:37:47;;;;;;;22.73;4.20;;;;;;;;;;4974949;28;20023;-74
2022/10/08 05:40:13;;;;;;;26.50;5.03;;;;;;;;;;4958018;28;20089;-74
2022/10/08 05:42:39;;;;;;;26.40;5.57;;;;;;;;;;4972122;28;20093;-74
2022/10/08 05:45:05;;;;;;;24.48;5.22;;;;;;;;;;4973225;28;20133;-75
2022/10/08 05:47:31;;;;;;;15.75;4.70;;;;;;;;;;4975230;28;20053;-74
2022/10/08 05:49:57;;;;;;;18.13;4.47;;;;;;;;;;4969595;28;20464;-75
2022/10/08 05:52:25;;;;;;;22.17;4.50;;;;;;;;;;4996063;28;20134;-73
2022/10/08 05:54:51;;;;;;;21.40;4.63;;;;;;;;;;4967637;28;20031;-73
2022/10/08 05:57:17;;;;;;;28.70;5.70;;;;;;;;;;4967671;28;20121;-73
2022/10/08 05:59:43;;;;;;;22.65;4.40;;;;;;;;;;4964604;28;20146;-74
2022/10/08 06:02:10;;;;;;;22.48;4.78;;;;;;;;;;4966818;28;20066;-74
2022/10/08 06:04:36;;;;;;;23.60;4.78;;;;;;;;;;4965276;28;20121;-73
2022/10/08 06:07:02;;;;;;;20.10;5.18;;;;;;;;;;4968302;28;20476;-74
2022/10/08 06:09:28;;;;;;;21.98;4.22;;;;;;;;;;4963861;28;20089;-75
2022/10/08 06:11:54;;;;;;;18.38;4.10;;;;;;;;;;4966629;28;20031;-74
2022/10/08 06:14:20;;;;;;;14.38;3.75;;;;;;;;;;4966492;28;20054;-74
2022/10/08 06:16:46;;;;;;;17.25;3.80;;;;;;;;;;4964628;28;20058;-73
2022/10/08 06:19:12;;;;;;;29.85;4.68;;;;;;;;;;4968149;28;20451;-73
2022/10/08 06:21:39;;;;;;;20.40;2.97;;;;;;;;;;4963021;28;20533;-73
2022/10/08 06:24:07;;;;;;;14.85;3.25;;;;;;;;;;4966710;28;20084;-73
2022/10/08 06:26:34;;;;;;;19.23;3.50;;;;;;;;;;4964621;28;20524;-74
2022/10/08 06:29:00;;;;;;;19.30;4.10;;;;;;;;;;4968934;28;20027;-74
2022/10/08 06:31:27;;;;;;;26.25;3.60;;;;;;;;;;4963097;28;20402;-74
2022/10/08 06:33:57;;;;;;;20.63;2.85;;;;;;;;;;4968164;28;20449;-74
2022/10/08 06:36:27;;;;;;;11.90;2.90;;;;;;;;;;4960572;28;20548;-74
2022/10/08 06:38:54;;;;;;;14.30;3.05;;;;;;;;;;4976162;28;20519;-75
2022/10/08 06:41:21;;;;;;;12.93;3.08;;;;;;;;;;4969777;28;20039;-74
2022/10/08 06:43:47;;;;;;;19.35;3.47;;;;;;;;;;4999995;28;20559;-75
2022/10/08 06:46:13;;;;;;;15.00;3.30;;;;;;;;;;4971259;28;20452;-75
2022/10/08 06:48:39;;;;;;;14.68;2.22;;;;;;;;;;4977581;28;20116;-75
2022/10/08 06:51:06;;;;;;;21.27;3.05;;;;;;;;;;4970075;28;20026;-74
2022/10/08 06:53:33;;;;;;;11.05;3.22;;;;;;;;;;4971075;28;20030;-74
2022/10/08 06:56:00;;;;;;;10.55;2.50;;;;;;;;;;4978348;28;20475;-74
2022/10/08 06:58:26;;;;;;;13.75;2.40;;;;;;;;;;4969977;28;20061;-75
2022/10/08 07:01:01;;;;;;;23.35;3.03;;;;;;;;;;4967875;28;20116;-74
2022/10/08 07:03:27;;;;;;;12.63;2.90;;;;;;;;;;4971458;28;20150;-74
2022/10/08 07:05:53;;;;;;;11.02;2.28;;;;;;;;;;4971624;28;20030;-74
2022/10/08 07:08:19;;;;;;;11.55;2.63;;;;;;;;;;4985468;28;20512;-75
2022/10/08 07:10:46;;;;;;;15.35;2.38;;;;;;;;;;4970407;28;20160;-75
2022/10/08 07:13:12;;;;;;;9.70;2.13;;;;;;;;;;4987725;28;20373;-74
2022/10/08 07:15:38;;;;;;;16.15;2.33;;;;;;;;;;4978835;28;20034;-74
2022/10/08 07:18:04;;;;;;;15.00;2.60;;;;;;;;;;4972251;28;20031;-74
2022/10/08 07:20:30;;;;;;;10.25;1.70;;;;;;;;;;4974956;28;20544;-74
2022/10/08 07:22:56;;;;;;;10.90;2.00;;;;;;;;;;4970763;28;20113;-75
2022/10/08 07:25:22;;;;;;;10.63;2.30;;;;;;;;;;4972511;28;20022;-73
2022/10/08 07:27:48;;;;;;;16.15;2.17;;;;;;;;;;4964291;28;20500;-74
2022/10/08 07:30:14;;;;;;;17.00;1.92;;;;;;;;;;4973180;28;20393;-74
2022/10/08 07:32:40;;;;;;;14.98;2.45;;;;;;;;;;4971539;28;20035;-74
2022/10/08 07:35:06;;;;;;;14.98;2.70;;;;;;;;;;4967146;28;20065;-74
2022/10/08 07:37:32;;;;;;;15.27;3.40;;;;;;;;;;4969665;28;20085;-73
2022/10/08 07:39:58;;;;;;;15.48;2.38;;;;;;;;;;4968415;28;20496;-74
2022/10/08 07:42:24;;;;;;;14.07;2.15;;;;;;;;;;4978113;28;20066;-74
2022/10/08 07:44:50;;;;;;;11.80;2.13;;;;;;;;;;4976416;28;20035;-74
2022/10/08 07:47:16;;;;;;;10.38;1.80;;;;;;;;;;4985710;28;20035;-74
2022/10/08 07:49:42;;;;;;;14.95;2.20;;;;;;;;;;4969828;28;20030;-74
2022/10/08 07:52:08;;;;;;;9.55;2.40;;;;;;;;;;4968476;28;20038;-73
2022/10/08 07:54:34;;;;;;;13.73;1.95;;;;;;;;;;4970179;28;20215;-74
2022/10/08 07:57:01;;;;;;;13.98;2.15;;;;;;;;;;4970179;28;20034;-74
2022/10/08 07:59:27;;;;;;;11.35;2.17;;;;;;;;;;4972908;28;20135;-74
2022/10/08 08:01:53;;;;;;;11.65;2.53;;;;;;;;;;4969969;28;20118;-74
2022/10/08 08:04:19;;;;;;;12.73;1.73;;;;;;;;;;4970248;28;20496;-73
2022/10/08 08:06:47;;;;;;;14.23;2.42;;;;;;;;;;4952851;28;20586;-74
2022/10/08 08:09:17;;;;;;;17.85;3.33;;;;;;;;;;4983697;28;20026;-74
2022/10/08 08:11:43;;;;;;;13.15;2.65;;;;;;;;;;4969483;28;20039;-74
2022/10/08 08:14:09;;;;;;;12.02;1.70;;;;;;;;;;4969041;28;20046;-74
2022/10/08 08:16:35;;;;;;;11.20;1.60;;;;;;;;;;4973680;28;20172;-74
2022/10/08 08:19:02;;;;;;;11.52;1.75;;;;;;;;;;4968625;28;20073;-74
2022/10/08 08:21:30;;;;;;;12.68;1.65;;;;;;;;;;4973902;28;20030;-74
2022/10/08 08:23:57;;;;;;;10.98;2.15;;;;;;;;;;4968053;28;20032;-75
2022/10/08 08:26:24;;;;;;;15.40;2.03;;;;;;;;;;4967631;28;20027;-74
2022/10/08 08:28:51;;;;;;;10.65;2.10;;;;;;;;;;4968781;28;20027;-74
2022/10/08 08:31:21;;;;;;;13.50;2.15;;;;;;;;;;4968568;28;20174;-75
2022/10/08 08:33:49;;;;;;;14.90;2.10;;;;;;;;;;4987087;28;20038;-75
2022/10/08 08:36:16;;;;;;;15.55;2.78;;;;;;;;;;4987683;28;20049;-75
2022/10/08 08:38:42;;;;;;;14.10;2.15;;;;;;;;;;4969259;28;20062;-75
2022/10/08 08:41:08;;;;;;;11.40;2.10;;;;;;;;;;4968787;28;20475;-75
2022/10/08 08:43:34;;;;;;;11.77;1.90;;;;;;;;;;4975409;28;20030;-74
2022/10/08 08:46:01;;;;;;;12.13;2.17;;;;;;;;;;4972076;28;20555;-74
2022/10/08 08:48:31;;;;;;;10.32;2.28;;;;;;;;;;4971427;28;20106;-74
2022/10/08 08:50:58;;;;;;;11.85;2.47;;;;;;;;;;4984661;28;20440;-74
2022/10/08 08:53:24;;;;;;;11.07;2.30;;;;;;;;;;4971572;28;20030;-74
2022/10/08 08:55:55;;;;;;;10.88;1.67;;;;;;;;;;4970435;28;20030;-75
2022/10/08 08:58:34;;;;;;;11.43;1.75;;;;;;;;;;4976401;28;20057;-74
2022/10/08 09:01:09;;;;;;;9.77;1.95;;;;;;;;;;4969641;28;20092;-74
2022/10/08 09:03:52;;;;;;;9.77;1.90;;;;;;;;;;4974574;28;20431;-74
2022/10/08 09:06:21;;;;;;;12.40;2.63;;;;;;;;;;4953849;29;20035;-74
2022/10/08 09:08:49;;;;;;;9.00;1.90;;;;;;;;;;4965484;28;20026;-74
2022/10/08 09:11:16;;;;;;;11.48;1.77;;;;;;;;;;4971553;28;20038;-74
2022/10/08 09:13:51;;;;;;;12.25;1.92;;;;;;;;;;4961276;28;20031;-74
2022/10/08 09:16:17;;;;;;;12.52;2.28;;;;;;;;;;4962080;28;20508;-74
2022/10/08 09:18:45;;;;;;;21.40;3.33;;;;;;;;;;4971520;28;20464;-75
2022/10/08 09:21:11;;;;;;;14.60;2.53;;;;;;;;;;4972391;28;20023;-75
2022/10/08 09:23:37;;;;;;;9.80;1.88;;;;;;;;;;4973876;28;20058;-75
2022/10/08 09:26:12;;;;;;;17.38;2.58;;;;;;;;;;4976092;28;20039;-75
2022/10/08 09:28:40;;;;;;;12.18;3.58;;;;;;;;;;4967726;28;20055;-74
2022/10/08 09:31:17;;;;;;;14.30;2.55;;;;;;;;;;4965957;28;20031;-74
2022/10/08 09:33:44;;;;;;;12.10;2.75;;;;;;;;;;4968130;28;20462;-74
2022/10/08 09:36:10;;;;;;;18.17;2.70;;;;;;;;;;4970657;28;20054;-74
2022/10/08 09:38:36;;;;;;;13.27;2.58;;;;;;;;;;4968744;28;20038;-74
2022/10/08 09:41:05;;;;;;;14.75;2.45;;;;;;;;;;4966514;28;20039;-74
2022/10/08 09:43:32;;;;;;;14.07;1.98;;;;;;;;;;4970270;28;21922;-76
2022/10/08 09:45:58;;;;;;;13.27;2.05;;;;;;;;;;4972328;28;20047;-75
2022/10/08 09:48:24;;;;;;;11.20;1.55;;;;;;;;;;4972508;28;20519;-75
2022/10/08 09:50:58;;;;;;;11.02;1.63;;;;;;;;;;4971604;28;20395;-75
2022/10/08 09:53:27;;;;;;;11.60;2.05;;;;;;;;;;4976433;28;20041;-74
2022/10/08 09:56:01;;;;;;;8.35;1.70;;;;;;;;;;4974632;28;20030;-75
2022/10/08 09:58:29;;;;;;;11.90;1.98;;;;;;;;;;4978101;28;20063;-74
2022/10/08 10:00:57;;;;;;;10.88;1.80;;;;;;;;;;4971743;28;20026;-75
2022/10/08 10:03:25;;;;;;;6.35;1.58;;;;;;;;;;4969881;28;20029;-75
2022/10/08 10:05:52;;;;;;;10.45;1.70;;;;;;;;;;4971417;28;20089;-75
2022/10/08 10:08:37;;;;;;;13.82;1.85;;;;;;;;;;4970995;28;20113;-76
2022/10/08 10:11:03;;;;;;;14.13;1.95;;;;;;;;;;4974052;28;20053;-74
2022/10/08 10:13:35;;;;;;;16.60;1.90;;;;;;;;;;4973296;28;20492;-75
2022/10/08 10:16:03;;;;;;;14.07;2.10;;;;;;;;;;4971756;28;20027;-74
2022/10/08 10:18:39;;;;;;;12.20;1.92;;;;;;;;;;4987118;28;20034;-75
2022/10/08 10:21:07;;;;;;;7.80;1.85;;;;;;;;;;4974505;28;20031;-75
2022/10/08 10:23:33;;;;;;;9.45;1.40;;;;;;;;;;4975858;28;20492;-74
2022/10/08 10:26:12;;;;;;;12.38;1.90;;;;;;;;;;4974182;28;20022;-75
2022/10/08 10:28:50;;;;;;;10.40;1.90;;;;;;;;;;4964933;28;20051;-75
2022/10/08 10:31:22;;;;;;;12.02;1.52;;;;;;;;;;4976386;28;20424;-75
2022/10/08 10:33:53;;;;;;;14.00;1.85;;;;;;;;;;4974711;28;20035;-75
2022/10/08 10:36:21;;;;;;;8.85;1.83;;;;;;;;;;4978681;28;20467;-75
2022/10/08 10:38:52;;;;;;;12.55;1.83;;;;;;;;;;4976293;28;20061;-74
2022/10/08 10:41:22;;;;;;;15.20;3.35;;;;;;;;;;4970130;28;20258;-76
2022/10/08 10:43:51;;;;;;;13.45;1.80;;;;;;;;;;4977138;28;20027;-74
2022/10/08 10:46:30;;;;;;;13.85;2.20;;;;;;;;;;4970144;28;20035;-74
2022/10/08 10:48:57;;;;;;;8.73;1.75;;;;;;;;;;4983779;28;20062;-75
2022/10/08 10:51:43;;;;;;;14.20;2.42;;;;;;;;;;4965878;28;20027;-73
2022/10/08 10:54:18;;;;;;;13.60;2.10;;;;;;;;;;4971475;28;20071;-74
2022/10/08 10:56:51;;;;;;;15.20;2.55;;;;;;;;;;4981249;28;20034;-73
2022/10/08 10:59:47;;;;;;;16.50;2.65;;;;;;;;;;4975010;28;20064;-73
2022/10/08 11:02:38;;;;;;;12.68;1.77;;;;;;;;;;4964529;28;20046;-73
2022/10/08 11:05:12;;;;;;;15.75;1.80;;;;;;;;;;4957974;28;20035;-75
2022/10/08 11:07:38;;;;;;;12.48;2.00;;;;;;;;;;4976367;28;20026;-74
2022/10/08 11:10:08;;;;;;;17.30;3.88;;;;;;;;;;4971789;28;20132;-76
2022/10/08 11:12:41;;;;;;;17.47;2.50;;;;;;;;;;4965862;28;20065;-74
2022/10/08 11:15:10;;;;;;;18.17;2.65;;;;;;;;;;4975875;28;20039;-76
2022/10/08 11:17:39;;;;;;;13.02;2.22;;;;;;;;;;4966595;28;20485;-75
2022/10/08 11:20:23;;;;;;;12.27;2.20;;;;;;;;;;4975131;28;20090;-75
2022/10/08 11:22:49;;;;;;;23.60;2.95;;;;;;;;;;4975660;28;20073;-75
2022/10/08 11:25:34;;;;;;;11.32;1.83;;;;;;;;;;4969939;28;20109;-74
2022/10/08 11:28:06;;;;;;;15.68;1.95;;;;;;;;;;4979568;28;20532;-75
2022/10/08 11:30:32;;;;;;;16.67;2.75;;;;;;;;;;4973333;28;20102;-75
2022/10/08 11:32:58;;;;;;;10.48;3.20;;;;;;;;;;4968608;28;20325;-73
2022/10/08 11:35:33;;;;;;;16.98;2.17;;;;;;;;;;4969430;28;20030;-75
2022/10/08 11:38:08;;;;;;;17.52;2.58;;;;;;;;;;4983272;28;20080;-74
2022/10/08 11:40:45;;;;;;;19.83;2.15;;;;;;;;;;4974439;28;20034;-76
2022/10/08 11:43:32;;;;;;;13.25;2.20;;;;;;;;;;4969893;28;20092;-75
2022/10/08 11:46:16;;;;;;;16.35;2.53;;;;;;;;;;4963279;28;20136;-75
2022/10/08 11:48:42;;;;;;;12.50;2.20;;;;;;;;;;4970228;28;20031;-73
2022/10/08 11:51:20;;;;;;;13.45;2.40;;;;;;;;;;4981002;28;20034;-73
2022/10/08 11:54:05;;;;;;;12.95;2.00;;;;;;;;;;4979588;28;20038;-74
2022/10/08 11:56:33;;;;;;;19.63;2.78;;;;;;;;;;4968935;28;20484;-74
2022/10/08 11:59:01;;;;;;;9.48;1.40;;;;;;;;;;4976738;28;20043;-75
2022/10/08 12:01:27;;;;;;;14.75;2.30;;;;;;;;;;4965725;28;20058;-74
2022/10/08 12:04:11;;;;;;;10.00;1.63;;;;;;;;;;4982249;28;20049;-74
2022/10/08 12:06:37;;;;;;;10.88;1.83;;;;;;;;;;4975119;28;20030;-74
2022/10/08 12:09:05;;;;;;;12.88;2.17;;;;;;;;;;4962250;28;20027;-74
2022/10/08 12:11:34;;;;;;;12.85;1.80;;;;;;;;;;4971448;28;20353;-74
2022/10/08 12:14:15;;;;;;;11.18;1.92;;;;;;;;;;4970309;28;20117;-75
2022/10/08 12:16:47;;;;;;;11.30;2.00;;;;;;;;;;4977649;28;20515;-74
2022/10/08 12:19:35;;;;;;;12.02;1.90;;;;;;;;;;4986120;28;20064;-77
2022/10/08 12:22:01;;;;;;;13.55;2.15;;;;;;;;;;4973414;28;20536;-74
2022/10/08 12:24:39;;;;;;;8.00;1.83;;;;;;;;;;4973707;28;20393;-77
2022/10/08 12:27:17;;;;;;;8.40;1.90;;;;;;;;;;4975482;28;20510;-75
2022/10/08 12:29:58;;;;;;;9.70;1.63;;;;;;;;;;4970252;28;20022;-77
2022/10/08 12:32:26;;;;;;;10.25;2.08;;;;;;;;;;4977434;28;20045;-74
2022/10/08 12:34:52;;;;;;;8.10;1.58;;;;;;;;;;4990016;28;20542;-75
2022/10/08 12:37:27;;;;;;;7.60;1.55;;;;;;;;;;4983947;28;20065;-74
2022/10/08 12:39:54;;;;;;;12.15;1.63;;;;;;;;;;4977800;28;20038;-75
2022/10/08 12:42:23;;;;;;;8.18;1.52;;;;;;;;;;4975679;28;20462;-75
2022/10/08 12:44:52;;;;;;;12.25;1.67;;;;;;;;;;4976132;28;20511;-75
2022/10/08 12:47:27;;;;;;;13.60;2.33;;;;;;;;;;4975628;28;20381;-75
2022/10/08 12:49:58;;;;;;;10.10;2.13;;;;;;;;;;4971457;28;20026;-73
2022/10/08 12:52:24;;;;;;;15.55;1.85;;;;;;;;;;4972197;28;20436;-74
2022/10/08 12:54:54;;;;;;;11.63;2.63;;;;;;;;;;4986391;28;20069;-75
2022/10/08 12:57:23;;;;;;;8.57;2.05;;;;;;;;;;4976512;28;20023;-75
2022/10/08 12:59:50;;;;;;;9.70;2.03;;;;;;;;;;4973257;28;20149;-75
2022/10/08 13:02:36;;;;;;;7.53;1.73;;;;;;;;;;4978605;28;20475;-75
2022/10/08 13:05:04;;;;;;;12.60;1.50;;;;;;;;;;4984276;28;20049;-75
2022/10/08 13:07:31;;;;;;;14.55;1.85;;;;;;;;;;4978979;28;20026;-75
2022/10/08 13:09:58;;;;;;;12.07;1.73;;;;;;;;;;4975739;28;20077;-74
2022/10/08 13:12:25;;;;;;;8.88;1.35;;;;;;;;;;4973813;28;20085;-75
2022/10/08 13:15:04;;;;;;;9.25;1.30;;;;;;;;;;4971900;28;20361;-75
2022/10/08 13:17:31;;;;;;;7.93;1.70;;;;;;;;;;4979598;28;20038;-75
2022/10/08 13:20:05;;;;;;;6.82;1.30;;;;;;;;;;4974735;28;20042;-75
2022/10/08 13:22:31;;;;;;;9.10;2.10;;;;;;;;;;4970175;28;20097;-75
2022/10/08 13:24:57;;;;;;;10.18;1.75;;;;;;;;;;4974086;28;20043;-75
2022/10/08 13:27:23;;;;;;;7.97;1.50;;;;;;;;;;4974977;28;20097;-75
2022/10/08 13:29:49;;;;;;;5.82;1.23;;;;;;;;;;4981488;28;20475;-75
2022/10/08 13:32:18;;;;;;;8.02;1.63;;;;;;;;;;4971967;28;20031;-75
2022/10/08 13:34:46;;;;;;;6.43;1.23;;;;;;;;;;4977593;28;20054;-75
2022/10/08 13:37:13;;;;;;;9.25;1.85;;;;;;;;;;4971911;28;20035;-74
2022/10/08 13:39:41;;;;;;;11.95;1.85;;;;;;;;;;4984481;28;20129;-76
2022/10/08 13:42:13;;;;;;;13.65;1.55;;;;;;;;;;4980128;28;20045;-76
2022/10/08 13:44:40;;;;;;;9.57;1.60;;;;;;;;;;4969539;28;20093;-75
2022/10/08 13:47:09;;;;;;;12.38;1.95;;;;;;;;;;4972830;28;20118;-74
2022/10/08 13:49:35;;;;;;;12.55;1.77;;;;;;;;;;4973386;28;20101;-74
2022/10/08 13:52:02;;;;;;;7.60;1.75;;;;;;;;;;4971030;28;20053;-74
2022/10/08 13:54:29;;;;;;;10.40;1.63;;;;;;;;;;4975476;28;20085;-75
2022/10/08 13:56:57;;;;;;;10.18;1.70;;;;;;;;;;4973029;28;20063;-75
2022/10/08 13:59:23;;;;;;;10.88;1.63;;;;;;;;;;4971564;28;20500;-75
2022/10/08 14:01:50;;;;;;;9.73;1.50;;;;;;;;;;4981691;28;20101;-75
2022/10/08 14:04:16;;;;;;;10.65;2.00;;;;;;;;;;4971056;28;20089;-75
2022/10/08 14:06:44;;;;;;;10.82;1.48;;;;;;;;;;4970711;28;20030;-76
2022/10/08 14:09:18;;;;;;;8.05;1.38;;;;;;;;;;4988999;28;20029;-75
2022/10/08 14:11:46;;;;;;;11.27;1.63;;;;;;;;;;4974980;28;20034;-75
2022/10/08 14:14:13;;;;;;;6.72;1.73;;;;;;;;;;4973930;28;20052;-75
2022/10/08 14:16:40;;;;;;;13.32;1.60;;;;;;;;;;4970519;28;20034;-75
2022/10/08 14:19:06;;;;;;;8.05;1.67;;;;;;;;;;4979023;28;20034;-75
2022/10/08 14:21:32;;;;;;;9.18;1.40;;;;;;;;;;4976417;28;20034;-74
2022/10/08 14:23:58;;;;;;;9.68;2.08;;;;;;;;;;4970543;28;20057;-75
2022/10/08 14:26:24;;;;;;;8.18;2.10;;;;;;;;;;4975032;28;20134;-75
2022/10/08 14:28:50;;;;;;;5.20;1.10;;;;;;;;;;4973184;28;20018;-76
2022/10/08 14:31:16;;;;;;;9.20;1.55;;;;;;;;;;4973142;28;20042;-75
2022/10/08 14:33:42;;;;;;;8.82;1.50;;;;;;;;;;4977438;28;20082;-75
2022/10/08 14:36:14;;;;;;;11.52;1.50;;;;;;;;;;4984309;28;20039;-75
2022/10/08 14:38:40;;;;;;;10.10;1.75;;;;;;;;;;4976428;28;20491;-74
2022/10/08 14:41:06;;;;;;;10.25;1.58;;;;;;;;;;4972834;28;20117;-75